Flight Track Log - Related Links

Times and Time Zones

All times are in EST time to prevent confusion due to time zone crossing. See the N2729L flight status page for this flight to view local times or setup timezone preferences in your user account.

Time Position Orientation Groundspeed Altitude Reporting Facility
EST Latitude Longitude Course Direction KTS MPH feet Rate Location/Type
Mon 06:31:51 PM -19.9789 -159.9609 34° Northeast  Level FlightAware Approximate
Mon 06:36:07 PM 36.5031 -119.5939 156° South 140 161 6,800  Level Oakland Center
Mon 06:37:07 PM 36.4675 -119.5739 159° South 140 161 7,400 645 Climbing Oakland Center
Mon 06:38:08 PM 36.4317 -119.5564 162° South 140 161 8,100 645 Climbing Oakland Center
Mon 06:39:08 PM 36.3961 -119.5417 160° South 145 167 8,700 605 Climbing Oakland Center
Mon 06:40:07 PM 36.3583 -119.5244 158° South 145 167 9,300 600 Climbing Oakland Center
Mon 06:41:08 PM 36.3228 -119.5069 157° South 145 167 9,900 645 Climbing Oakland Center
Mon 06:42:08 PM 36.2850 -119.4872 163° South 150 173 10,600 605 Climbing Oakland Center
Mon 06:43:07 PM 36.2450 -119.4725 160° South 150 173 11,100 550 Climbing Oakland Center
Mon 06:44:08 PM 36.2072 -119.4553 157° South 150 173 11,700 550 Climbing Oakland Center
Mon 06:45:07 PM 36.1694 -119.4353 159° South 150 173 12,200 555 Climbing Oakland Center
Mon 06:46:07 PM 36.1275 -119.4156 154° Southeast 150 173 12,800 545 Climbing Oakland Center
Mon 06:46:24 PM 36.1175 -119.4094 160° South 150 173 12,900 468 Climbing Los Angeles Center
Mon 06:47:24 PM 36.0783 -119.3922 158° South 155 178 13,400 350 Climbing Los Angeles Center
Mon 06:48:24 PM 36.0331 -119.3700 160° South 166 191 13,600 100 Climbing Los Angeles Center
Mon 06:49:24 PM 35.9836 -119.3475 160° South 173 199 13,600  Level Los Angeles Center
Mon 06:50:24 PM 35.9319 -119.3247 158° South 186 214 13,600  Level Los Angeles Center
Mon 06:51:24 PM 35.8806 -119.2997 159° South 191 220 13,600  Level Los Angeles Center
Mon 06:52:24 PM 35.8289 -119.2747 158° South 196 226 13,600  Level Los Angeles Center
Mon 06:53:25 PM 35.7775 -119.2497 159° South 202 232 13,600  Level Los Angeles Center
Mon 06:54:24 PM 35.7239 -119.2244 159° South 202 232 13,600  Level Los Angeles Center
Mon 06:55:24 PM 35.6703 -119.1994 159° South 208 239 13,600  Level Los Angeles Center
Mon 06:56:24 PM 35.6167 -119.1744 161° South 208 239 13,600  Level Los Angeles Center
Mon 06:57:24 PM 35.5631 -119.1519 159° South 208 239 13,600  Level Los Angeles Center
Mon 06:58:24 PM 35.5094 -119.1269 159° South 208 239 13,600  Level Los Angeles Center
Mon 06:59:24 PM 35.4556 -119.1019 159° South 208 239 13,600  Level Los Angeles Center
Mon 07:00:24 PM 35.4019 -119.0772 159° South 208 239 13,600  Level Los Angeles Center
Mon 07:01:24 PM 35.3483 -119.0522 159° South 208 239 13,600  Level Los Angeles Center
Mon 07:02:24 PM 35.2947 -119.0275 159° South 208 239 13,600  Level Los Angeles Center
Mon 07:03:24 PM 35.2411 -119.0028 161° South 208 239 13,600  Level Los Angeles Center
Mon 07:04:24 PM 35.1872 -118.9806 159° South 208 239 13,600  Level Los Angeles Center
Mon 07:05:24 PM 35.1336 -118.9558 159° South 208 239 13,600  Level Los Angeles Center
Mon 07:06:24 PM 35.0819 -118.9311 159° South 208 239 13,600  Level Los Angeles Center
Mon 07:07:25 PM 35.0283 -118.9064 160° South 208 239 13,600  Level Los Angeles Center
Mon 07:08:24 PM 34.9747 -118.8819 161° South 208 239 13,600 -504 Level Los Angeles Center
Mon 07:09:24 PM 34.9167 -118.8572 165° South 213 245 12,600 -950 Descending Los Angeles Center
Mon 07:10:24 PM 34.8547 -118.8375 159° South 224 258 11,700 -1,200 Descending Los Angeles Center
Mon 07:11:24 PM 34.7947 -118.8100 156° South 224 258 10,200 -1,250 Descending Los Angeles Center
Mon 07:12:24 PM 34.7350 -118.7778 160° South 229 264 9,200 -800 Descending Los Angeles Center
Mon 07:13:24 PM 34.6750 -118.7506 161° South 229 264 8,600 -600 Descending Los Angeles Center
Mon 07:14:24 PM 34.6150 -118.7261 159° South 224 258 8,000 -550 Descending Los Angeles Center
Mon 07:15:24 PM 34.5633 -118.7017 160° South 218 251 7,500 -250 Descending Los Angeles Center
Mon 07:16:24 PM 34.5094 -118.6775 160° South 212 244 7,500 -100 Level Los Angeles Center
Mon 07:17:24 PM 34.4600 -118.6556 159° South 201 231 7,300 -350 Descending Los Angeles Center
Mon 07:18:24 PM 34.4083 -118.6314 164° South 201 231 6,800 -524 Descending Los Angeles Center
Mon 07:19:07 PM 34.3667 -118.6167 151° Southeast 202 232 6,400 -699 Descending Southern California TRACON
Mon 07:20:07 PM 34.3167 -118.5833 165° South 206 237 5,600 -700 Descending Southern California TRACON
Mon 07:21:07 PM 34.2667 -118.5667 195° South 201 231 5,000 -650 Descending Southern California TRACON
Mon 07:22:07 PM 34.2167 -118.5833 129° Southeast 200 230 4,300 -650 Descending Southern California TRACON
Mon 07:23:07 PM 34.1833 -118.5333 129° Southeast 187 215 3,700 -600 Descending Southern California TRACON
Mon 07:24:07 PM 34.1500 -118.4833 158° South 151 174 3,100 -600 Descending Southern California TRACON
Mon 07:25:07 PM 34.1167 -118.4667 227° Southwest 142 163 2,500 -545 Descending Southern California TRACON
Mon 07:25:24 PM 34.1086 -118.4769 189° South 148 170 2,400 -234 Descending Los Angeles Center
Mon 07:26:24 PM 34.0731 -118.4836 216° Southwest 124 143 2,200 -150 Descending Los Angeles Center
Mon 07:27:24 PM 34.0478 -118.5056 174° South 119 137 2,100 -100 Descending Los Angeles Center
Mon 07:28:24 PM 34.0206 -118.5022 76° East 104 120 2,000 -50 Descending Los Angeles Center
Mon 07:29:24 PM 34.0275 -118.4697 41° Northeast 66 76 2,000 -50 Level Los Angeles Center
Mon 07:30:24 PM 34.0508 -118.4453 314° West 83 96 1,900 -50 Descending Los Angeles Center
Mon 07:31:25 PM 34.0550 -118.4506 37° Northeast 53 61 1,900 50 Level Los Angeles Center
Mon 07:32:24 PM 34.0742 -118.4333 62° Northeast 53 61 2,000 50 Climbing Los Angeles Center
Mon 07:33:24 PM 34.0806 -118.4186 177° South 46 53 2,000 -264 Level Los Angeles Center
Mon 07:35:03 PM 34.0500 -118.4167 203° Southwest 106 122 1,300 -604 Descending Southern California TRACON
Mon 07:36:03 PM 34.0167 -118.4333 203° Southwest 106 122 400 -900 Descending Southern California TRACON

Login

Don't have an account? Register now (free) for customized features, flight alerts, and more!